Time;durP1;ratioP1;P1;durP2;ratioP2;P2;SDS_P1;SDS_P2;PMS_P1;PMS_P2;Temp;Humidity;BMP_temperature;BMP_pressure;BME280_temperature;BME280_humidity;BME280_pressure;Samples;Min_cycle;Max_cycle;Signal;HPM_P1;HPM_P2
2023/01/27 00:00:34;;;;;;;28.23;4.35;;;6.70;99.90;;;;;;5013226;28;20022;-73
2023/01/27 00:03:00;;;;;;;22.92;3.58;;;6.60;99.90;;;;;;4998778;28;20032;-73
2023/01/27 00:05:25;;;;;;;14.38;4.05;;;6.60;99.90;;;;;;5003148;28;20080;-75
2023/01/27 00:07:51;;;;;;;26.80;4.85;;;6.60;99.90;;;;;;5001418;28;20109;-72
2023/01/27 00:10:18;;;;;;;20.35;3.72;;;6.60;99.90;;;;;;5003602;28;20640;-78
2023/01/27 00:15:32;;;;;;;23.33;3.85;;;6.60;99.90;;;;;;5001559;28;20395;-72
2023/01/27 00:17:57;;;;;;;23.15;3.58;;;6.50;99.90;;;;;;5001485;28;20032;-72
2023/01/27 00:26:11;;;;;;;17.70;3.20;;;6.50;99.90;;;;;;5001059;28;20469;-73
2023/01/27 00:28:38;;;;;;;13.48;3.45;;;6.50;99.90;;;;;;4999760;28;20064;-73
2023/01/27 00:31:04;;;;;;;21.85;4.05;;;6.50;99.90;;;;;;5001039;28;20030;-71
2023/01/27 00:33:30;;;;;;;21.67;3.47;;;6.50;99.90;;;;;;5002974;28;20131;-72
2023/01/27 00:36:06;;;;;;;26.33;3.40;;;6.50;99.90;;;;;;4999731;28;20037;-72
2023/01/27 00:38:39;;;;;;;20.23;3.75;;;6.40;99.90;;;;;;5002111;28;20018;-72
2023/01/27 00:41:14;;;;;;;15.30;3.63;;;6.40;99.90;;;;;;5003038;28;20037;-71
2023/01/27 00:43:40;;;;;;;20.05;3.75;;;6.30;99.90;;;;;;5002670;28;20390;-72
2023/01/27 00:46:07;;;;;;;23.23;4.45;;;6.30;99.90;;;;;;5005994;28;20030;-72
2023/01/27 00:48:33;;;;;;;22.92;3.53;;;6.30;99.90;;;;;;5000345;28;20386;-72
2023/01/27 00:50:58;;;;;;;25.55;3.67;;;6.40;99.90;;;;;;5006068;28;20476;-72
2023/01/27 00:53:24;;;;;;;13.52;3.70;;;6.30;99.90;;;;;;5000953;28;20014;-72
2023/01/27 00:55:50;;;;;;;26.95;3.92;;;6.30;99.90;;;;;;5000969;28;20033;-71
2023/01/27 00:58:15;;;;;;;22.73;3.80;;;6.30;99.90;;;;;;5004878;28;20021;-73
2023/01/27 01:00:41;;;;;;;15.55;3.97;;;6.30;99.90;;;;;;5000334;28;20041;-76
2023/01/27 01:03:07;;;;;;;13.65;3.63;;;6.30;99.90;;;;;;5002673;28;20459;-73
2023/01/27 01:05:32;;;;;;;17.10;4.35;;;6.30;99.90;;;;;;5000684;28;20030;-72
2023/01/27 01:07:58;;;;;;;18.38;3.20;;;6.30;99.90;;;;;;5005531;28;20060;-74
2023/01/27 01:10:24;;;;;;;16.67;3.70;;;6.30;99.90;;;;;;4998779;28;20037;-74
2023/01/27 01:12:49;;;;;;;20.33;3.83;;;6.30;99.90;;;;;;5003207;28;20050;-74
2023/01/27 01:15:15;;;;;;;21.08;4.05;;;6.30;99.90;;;;;;5003347;28;20112;-73
2023/01/27 01:17:41;;;;;;;24.58;4.22;;;6.40;99.90;;;;;;5006868;28;20034;-75
2023/01/27 01:20:07;;;;;;;12.50;3.60;;;6.30;99.90;;;;;;5000381;28;20029;-75
2023/01/27 01:22:33;;;;;;;13.77;3.88;;;6.30;99.90;;;;;;5004785;28;20088;-76
2023/01/27 01:25:02;;;;;;;22.20;4.10;;;6.30;99.90;;;;;;5002432;28;20458;-71
2023/01/27 01:27:28;;;;;;;11.50;3.63;;;6.30;99.90;;;;;;5004483;28;20025;-72
2023/01/27 01:29:54;;;;;;;16.48;3.47;;;6.30;99.90;;;;;;5003761;28;20037;-75
2023/01/27 01:32:19;;;;;;;16.23;3.45;;;6.20;99.90;;;;;;5001539;28;20364;-72
2023/01/27 01:34:45;;;;;;;16.63;3.88;;;6.20;99.90;;;;;;5021127;28;20041;-73
2023/01/27 01:37:11;;;;;;;11.20;3.85;;;6.20;99.90;;;;;;5001277;28;20021;-72
2023/01/27 01:39:36;;;;;;;14.32;3.10;;;6.10;99.90;;;;;;5002772;28;20022;-75
2023/01/27 01:42:02;;;;;;;13.82;3.33;;;6.10;99.90;;;;;;5000313;28;20026;-72
2023/01/27 01:44:30;;;;;;;12.23;3.40;;;6.10;99.90;;;;;;5004475;28;20032;-72
2023/01/27 01:46:59;;;;;;;12.45;3.67;;;6.10;99.90;;;;;;5002157;28;20076;-71
2023/01/27 01:49:34;;;;;;;5.25;2.95;;;6.10;99.90;;;;;;5001235;28;20041;-71
2023/01/27 01:52:06;;;;;;;13.95;4.13;;;6.20;99.90;;;;;;4999389;28;20045;-72
2023/01/27 01:54:40;;;;;;;13.45;3.83;;;6.10;99.90;;;;;;5000914;28;20030;-73
2023/01/27 01:57:14;;;;;;;20.63;4.50;;;6.10;99.90;;;;;;5001924;28;20041;-72
2023/01/27 01:59:45;;;;;;;13.98;3.30;;;6.10;99.90;;;;;;5002449;28;20058;-72
2023/01/27 02:02:15;;;;;;;12.30;3.97;;;6.10;99.90;;;;;;4998328;28;20410;-72
2023/01/27 02:04:56;;;;;;;14.27;3.80;;;6.10;99.90;;;;;;5001595;28;20030;-72
2023/01/27 02:07:29;;;;;;;18.17;4.90;;;6.10;99.90;;;;;;5000544;28;20030;-73
2023/01/27 02:09:56;;;;;;;13.82;4.50;;;6.10;99.90;;;;;;5005799;28;20041;-71
2023/01/27 02:12:22;;;;;;;14.05;4.60;;;6.10;99.90;;;;;;4999725;28;20446;-75
2023/01/27 02:14:47;;;;;;;13.98;4.72;;;6.00;99.90;;;;;;5005300;28;20030;-73
2023/01/27 02:17:15;;;;;;;17.20;4.80;;;6.00;99.90;;;;;;5001196;28;20022;-73
2023/01/27 02:20:00;;;;;;;21.48;4.75;;;6.00;99.90;;;;;;5002351;28;20061;-72
2023/01/27 02:22:53;;;;;;;18.58;4.95;;;6.00;99.90;;;;;;5000908;28;20112;-74
2023/01/27 02:25:33;;;;;;;14.98;4.50;;;6.00;99.90;;;;;;4996058;28;20064;-72
2023/01/27 02:28:03;;;;;;;8.65;4.35;;;5.90;99.90;;;;;;4999790;28;20029;-75
2023/01/27 02:30:29;;;;;;;13.52;4.78;;;6.00;99.90;;;;;;5006578;28;20053;-72
2023/01/27 02:32:55;;;;;;;15.10;5.93;;;6.00;99.90;;;;;;4999197;28;20026;-72
2023/01/27 02:35:35;;;;;;;16.85;4.82;;;6.00;99.90;;;;;;5001496;28;20035;-72
2023/01/27 02:38:02;;;;;;;11.15;5.65;;;5.90;99.90;;;;;;5002914;28;20107;-73
2023/01/27 02:40:29;;;;;;;16.35;5.30;;;5.90;99.90;;;;;;5002821;28;20033;-73
2023/01/27 02:42:58;;;;;;;13.95;5.68;;;5.90;99.90;;;;;;4999142;28;20037;-72
2023/01/27 02:45:24;;;;;;;17.25;5.30;;;6.00;99.90;;;;;;4999085;28;20030;-72
2023/01/27 02:47:50;;;;;;;14.20;5.57;;;5.90;99.90;;;;;;4999863;28;22063;-72
2023/01/27 02:50:16;;;;;;;22.25;5.07;;;5.70;99.90;;;;;;4997471;28;20053;-72
2023/01/27 02:52:41;;;;;;;14.20;4.75;;;5.80;99.90;;;;;;4997652;28;20026;-72
2023/01/27 02:55:07;;;;;;;17.85;5.75;;;5.80;99.90;;;;;;5011292;28;20418;-72
2023/01/27 02:57:33;;;;;;;18.20;5.38;;;5.70;99.90;;;;;;5009758;28;20041;-72
2023/01/27 02:59:59;;;;;;;18.58;5.65;;;5.80;99.90;;;;;;5013029;28;20490;-72
2023/01/27 03:02:29;;;;;;;13.48;5.35;;;5.80;99.90;;;;;;5012419;28;20080;-72
2023/01/27 03:04:56;;;;;;;15.90;5.18;;;5.80;99.90;;;;;;5011378;28;20113;-73
2023/01/27 03:07:22;;;;;;;12.13;5.30;;;5.90;99.90;;;;;;5005022;28;20490;-72
2023/01/27 03:09:48;;;;;;;16.48;6.35;;;6.00;99.90;;;;;;5016506;28;20037;-73
2023/01/27 03:12:20;;;;;;;21.15;6.22;;;5.90;99.90;;;;;;5014794;28;20041;-73
2023/01/27 03:20:16;;;;;;;16.10;7.13;;;5.90;99.90;;;;;;5016436;28;20451;-72
2023/01/27 03:22:41;;;;;;;16.02;7.25;;;5.80;99.90;;;;;;5007718;28;20108;-72
2023/01/27 03:25:07;;;;;;;17.65;7.38;;;5.70;99.90;;;;;;5015902;28;20026;-73
2023/01/27 03:27:34;;;;;;;18.20;7.72;;;5.70;99.90;;;;;;5013807;28;20119;-72
2023/01/27 03:30:00;;;;;;;20.48;7.85;;;5.80;99.90;;;;;;5015477;28;20034;-73
2023/01/27 03:32:27;;;;;;;21.88;8.32;;;5.80;99.90;;;;;;5015241;28;20087;-73
2023/01/27 03:34:56;;;;;;;17.20;7.82;;;5.90;99.90;;;;;;5008276;28;20034;-72
2023/01/27 03:48:31;;;;;;;14.38;7.57;;;5.90;99.90;;;;;;4997390;28;20045;-72
2023/01/27 03:51:01;;;;;;;16.60;8.88;;;6.00;99.90;;;;;;4995518;28;20033;-72
2023/01/27 03:53:27;;;;;;;19.33;9.23;;;6.00;99.90;;;;;;4994897;28;20038;-72
2023/01/27 03:55:53;;;;;;;26.40;11.43;;;5.90;99.90;;;;;;4995808;28;20030;-72
2023/01/27 03:58:20;;;;;;;27.67;11.35;;;5.70;99.90;;;;;;4995846;28;20149;-72
2023/01/27 04:00:51;;;;;;;26.27;11.77;;;5.70;99.90;;;;;;4995059;28;20054;-72
2023/01/27 04:08:56;;;;;;;29.15;12.55;;;5.80;99.90;;;;;;4995606;28;20053;-73
2023/01/27 04:14:07;;;;;;;26.63;12.75;;;5.70;99.90;;;;;;5011276;28;20161;-74
2023/01/27 04:16:35;;;;;;;24.98;13.23;;;5.80;99.90;;;;;;4994831;28;20026;-73
2023/01/27 04:19:02;;;;;;;27.80;13.18;;;5.70;99.90;;;;;;5011239;28;20462;-72
2023/01/27 04:21:28;;;;;;;27.42;13.63;;;5.70;99.90;;;;;;5015039;28;20029;-73
2023/01/27 04:23:54;;;;;;;31.08;14.02;;;5.70;99.90;;;;;;5013458;28;20056;-71
2023/01/27 04:26:21;;;;;;;34.17;15.25;;;5.60;99.90;;;;;;5014167;28;20025;-72
2023/01/27 04:28:47;;;;;;;29.30;13.18;;;5.70;99.90;;;;;;5014826;28;20033;-72
2023/01/27 04:31:14;;;;;;;27.75;13.35;;;5.70;99.90;;;;;;5013353;28;20067;-72
2023/01/27 04:33:41;;;;;;;28.58;13.02;;;5.70;99.90;;;;;;5012995;28;20445;-72
2023/01/27 04:36:07;;;;;;;31.58;13.60;;;5.60;99.90;;;;;;5013614;28;20080;-72
2023/01/27 04:38:33;;;;;;;27.08;12.57;;;5.60;99.90;;;;;;5014508;28;20428;-72
2023/01/27 04:40:59;;;;;;;24.23;10.20;;;5.60;99.90;;;;;;5014678;28;20108;-72
2023/01/27 04:43:24;;;;;;;29.67;14.25;;;5.70;99.90;;;;;;5014971;28;20033;-72
2023/01/27 04:45:50;;;;;;;31.33;14.55;;;5.60;99.90;;;;;;5014088;28;20463;-72
2023/01/27 04:48:16;;;;;;;29.58;13.00;;;5.70;99.90;;;;;;5014013;28;20022;-72
2023/01/27 04:50:41;;;;;;;24.08;12.50;;;5.70;99.90;;;;;;5000249;28;20535;-72
2023/01/27 04:53:07;;;;;;;27.52;12.43;;;5.70;99.90;;;;;;4997158;28;20033;-72
2023/01/27 04:55:32;;;;;;;24.20;12.40;;;5.70;99.90;;;;;;5000028;28;20117;-72
2023/01/27 04:57:58;;;;;;;28.65;13.38;;;5.70;99.90;;;;;;5002151;28;20027;-72
2023/01/27 05:00:24;;;;;;;22.40;12.85;;;5.80;99.90;;;;;;4997368;28;20030;-72
2023/01/27 05:02:49;;;;;;;23.63;12.88;;;5.80;99.90;;;;;;5006122;28;20026;-72
2023/01/27 05:05:15;;;;;;;23.98;12.35;;;5.70;99.90;;;;;;5012302;28;20068;-70
2023/01/27 05:07:41;;;;;;;28.52;13.48;;;5.60;99.90;;;;;;5005151;28;20033;-71
2023/01/27 05:10:07;;;;;;;30.13;14.57;;;5.60;99.90;;;;;;4994541;28;20044;-71
2023/01/27 05:12:33;;;;;;;29.02;14.23;;;5.50;99.90;;;;;;5004489;28;20018;-71
2023/01/27 05:14:59;;;;;;;25.77;12.65;;;5.60;99.90;;;;;;5013628;28;20394;-71
2023/01/27 05:17:26;;;;;;;24.90;12.60;;;5.60;99.90;;;;;;5013070;28;20041;-70
2023/01/27 05:19:52;;;;;;;26.55;13.38;;;5.70;99.90;;;;;;5013304;28;20041;-71
2023/01/27 05:22:18;;;;;;;26.83;13.27;;;5.60;99.90;;;;;;5013079;28;20022;-70
2023/01/27 05:24:43;;;;;;;27.65;12.93;;;5.60;99.90;;;;;;5013603;28;20030;-71
2023/01/27 05:27:09;;;;;;;30.83;13.57;;;5.40;99.90;;;;;;5010028;28;20030;-71
2023/01/27 05:29:34;;;;;;;24.65;12.00;;;5.50;99.90;;;;;;5012979;28;20077;-71
2023/01/27 05:32:00;;;;;;;25.30;12.68;;;5.50;99.90;;;;;;5011826;28;20070;-79
2023/01/27 05:34:26;;;;;;;23.05;12.05;;;5.50;99.90;;;;;;5013474;28;20034;-74
2023/01/27 05:36:51;;;;;;;23.30;12.20;;;5.60;99.90;;;;;;5011856;28;20014;-70
2023/01/27 05:39:17;;;;;;;27.90;13.10;;;5.50;99.90;;;;;;5013023;28;20030;-70
2023/01/27 05:41:43;;;;;;;24.67;11.93;;;5.60;99.90;;;;;;5012191;28;20025;-71
2023/01/27 05:44:11;;;;;;;22.95;12.10;;;5.40;99.90;;;;;;5012351;28;20041;-71
2023/01/27 05:46:39;;;;;;;24.88;12.50;;;5.50;99.90;;;;;;5004498;28;20018;-71
2023/01/27 05:49:05;;;;;;;23.05;12.48;;;5.60;99.90;;;;;;5010540;28;20048;-72
2023/01/27 05:51:41;;;;;;;27.00;13.50;;;5.60;99.90;;;;;;5013103;28;20022;-71
2023/01/27 05:54:07;;;;;;;27.27;13.25;;;5.60;99.90;;;;;;5012387;28;20045;-72
2023/01/27 05:56:33;;;;;;;28.13;14.43;;;5.60;99.90;;;;;;5008548;28;20371;-72
2023/01/27 05:58:59;;;;;;;31.42;14.10;;;5.60;99.90;;;;;;5010946;28;20040;-72
2023/01/27 06:01:30;;;;;;;27.20;14.73;;;5.70;99.90;;;;;;4996713;28;20030;-71
2023/01/27 06:03:56;;;;;;;31.10;14.35;;;5.70;99.90;;;;;;5007667;28;20048;-70
2023/01/27 06:06:24;;;;;;;26.98;14.20;;;5.70;99.90;;;;;;5012091;28;20125;-70
2023/01/27 06:08:50;;;;;;;23.17;12.43;;;5.60;99.90;;;;;;5012394;28;20069;-70
2023/01/27 06:11:21;;;;;;;24.00;12.27;;;5.60;99.90;;;;;;5012854;28;20397;-70
2023/01/27 06:13:47;;;;;;;26.25;13.13;;;5.70;99.90;;;;;;5010609;28;20100;-70
2023/01/27 06:16:18;;;;;;;25.20;12.48;;;5.70;99.90;;;;;;5011710;28;20021;-70
2023/01/27 06:18:44;;;;;;;24.85;13.00;;;5.70;99.90;;;;;;5013163;28;20030;-70
2023/01/27 06:21:11;;;;;;;25.38;13.57;;;5.80;99.90;;;;;;5013155;28;20072;-70
2023/01/27 06:23:38;;;;;;;30.92;14.70;;;5.70;99.90;;;;;;5013218;28;20044;-70
2023/01/27 06:26:09;;;;;;;26.48;14.20;;;5.70;99.90;;;;;;5012663;28;20386;-70
2023/01/27 06:28:35;;;;;;;25.50;13.98;;;5.70;99.90;;;;;;5009414;28;20534;-70
2023/01/27 06:31:21;;;;;;;26.02;12.85;;;5.70;99.90;;;;;;5011906;28;20449;-70
2023/01/27 06:33:47;;;;;;;23.83;12.55;;;5.80;99.90;;;;;;5007141;28;20061;-69
2023/01/27 06:36:15;;;;;;;30.00;12.85;;;5.80;99.90;;;;;;5012523;28;20471;-70
2023/01/27 06:38:41;;;;;;;28.15;13.13;;;5.80;99.90;;;;;;4995607;28;20033;-70
2023/01/27 06:41:07;;;;;;;26.02;12.90;;;5.80;99.90;;;;;;5010590;28;20030;-70
2023/01/27 06:43:33;;;;;;;26.73;12.98;;;5.90;99.90;;;;;;5011399;28;20390;-70
2023/01/27 06:45:59;;;;;;;23.38;12.88;;;5.90;99.90;;;;;;5012801;28;20026;-70
2023/01/27 06:48:26;;;;;;;26.33;12.77;;;5.80;99.90;;;;;;5010899;28;20156;-70
2023/01/27 06:50:53;;;;;;;23.48;12.85;;;5.90;99.90;;;;;;4993025;28;20026;-70
2023/01/27 06:53:19;;;;;;;26.48;12.15;;;5.90;99.90;;;;;;5009484;28;20481;-69
2023/01/27 06:55:45;;;;;;;24.10;12.25;;;5.90;99.90;;;;;;5008668;28;20037;-70
2023/01/27 06:58:12;;;;;;;25.75;12.50;;;5.80;99.90;;;;;;5005348;28;20030;-71
2023/01/27 07:00:39;;;;;;;26.98;13.07;;;5.90;99.90;;;;;;5012464;28;20068;-70
2023/01/27 07:03:05;;;;;;;24.08;12.20;;;5.90;99.90;;;;;;5004153;28;20036;-70
2023/01/27 07:05:32;;;;;;;22.10;12.38;;;5.90;99.90;;;;;;5012624;28;20023;-70
2023/01/27 07:07:58;;;;;;;22.63;12.02;;;5.90;99.90;;;;;;5011996;28;20393;-70
2023/01/27 07:10:25;;;;;;;23.70;13.10;;;5.90;99.90;;;;;;5012527;28;20034;-70
2023/01/27 07:12:50;;;;;;;23.45;11.85;;;5.90;99.90;;;;;;5011002;28;20028;-70
2023/01/27 07:15:16;;;;;;;24.27;12.45;;;5.90;99.90;;;;;;5012070;28;20394;-70
2023/01/27 07:17:42;;;;;;;23.70;11.57;;;5.90;99.90;;;;;;5012084;28;20022;-70
2023/01/27 07:20:11;;;;;;;27.02;12.73;;;5.90;99.90;;;;;;5012610;28;20173;-70
2023/01/27 07:22:37;;;;;;;24.45;11.95;;;5.90;99.90;;;;;;5012362;28;20506;-70
2023/01/27 07:25:04;;;;;;;22.23;11.13;;;5.90;99.90;;;;;;5011987;28;20129;-70
2023/01/27 07:27:29;;;;;;;26.33;12.55;;;5.80;99.90;;;;;;5010123;28;20026;-70
2023/01/27 07:29:55;;;;;;;24.88;12.20;;;5.80;99.90;;;;;;5001116;28;20057;-70
2023/01/27 07:32:21;;;;;;;24.75;13.35;;;5.90;99.90;;;;;;5007711;28;20091;-70
2023/01/27 07:34:46;;;;;;;23.35;11.50;;;5.90;99.90;;;;;;4995331;28;20497;-70
2023/01/27 07:37:13;;;;;;;22.10;11.80;;;5.90;99.90;;;;;;4992574;28;20061;-70
2023/01/27 07:39:38;;;;;;;20.23;11.65;;;5.90;99.90;;;;;;4992504;28;20372;-70
2023/01/27 07:42:05;;;;;;;19.63;12.68;;;5.90;99.90;;;;;;4992661;28;20080;-70
2023/01/27 07:44:31;;;;;;;18.15;10.18;;;5.90;99.90;;;;;;4992523;28;20061;-70
2023/01/27 07:46:57;;;;;;;22.23;12.55;;;6.00;99.90;;;;;;4993916;28;20062;-70
2023/01/27 07:49:23;;;;;;;21.45;11.75;;;6.00;99.90;;;;;;4991369;28;20509;-70
2023/01/27 07:51:49;;;;;;;23.10;11.20;;;6.00;99.90;;;;;;4994698;28;20539;-70
2023/01/27 07:54:14;;;;;;;21.40;12.27;;;6.00;99.90;;;;;;5012781;28;20180;-70
2023/01/27 07:56:40;;;;;;;18.40;11.23;;;5.90;99.90;;;;;;5015743;28;20018;-70
2023/01/27 07:59:06;;;;;;;22.15;11.07;;;6.00;99.90;;;;;;5015482;28;20026;-70
2023/01/27 08:01:32;;;;;;;20.13;11.68;;;6.00;99.90;;;;;;5012254;28;20036;-70
2023/01/27 08:03:58;;;;;;;18.38;11.48;;;5.90;99.90;;;;;;5014949;28;20033;-70
2023/01/27 08:06:24;;;;;;;20.35;11.70;;;5.90;99.90;;;;;;5014701;28;20532;-70
2023/01/27 08:08:49;;;;;;;19.67;11.23;;;5.80;99.90;;;;;;4995820;28;20034;-70
2023/01/27 08:11:15;;;;;;;16.42;11.27;;;5.90;99.90;;;;;;5001167;28;20038;-70
2023/01/27 08:13:41;;;;;;;16.92;10.52;;;5.90;99.90;;;;;;5000487;28;20496;-71
2023/01/27 08:16:12;;;;;;;20.95;10.88;;;5.80;99.90;;;;;;5005836;28;20474;-70
2023/01/27 08:18:37;;;;;;;16.25;10.57;;;5.90;99.90;;;;;;5004299;28;20102;-70
2023/01/27 08:21:06;;;;;;;18.48;10.52;;;5.80;99.90;;;;;;5011681;28;20097;-70
2023/01/27 08:23:32;;;;;;;18.88;10.60;;;5.80;99.90;;;;;;5014650;28;20557;-70
2023/01/27 08:26:00;;;;;;;14.93;9.73;;;5.80;99.90;;;;;;5013048;28;20073;-71
2023/01/27 08:28:27;;;;;;;17.00;10.57;;;5.80;99.90;;;;;;5013183;28;20022;-70
2023/01/27 08:30:53;;;;;;;17.23;11.45;;;5.90;99.90;;;;;;5008805;28;20084;-71
2023/01/27 08:33:21;;;;;;;18.73;10.38;;;5.90;99.90;;;;;;4995133;28;20042;-70
2023/01/27 08:35:48;;;;;;;14.95;9.50;;;5.80;99.90;;;;;;4997106;28;20100;-70
2023/01/27 08:38:16;;;;;;;18.67;10.35;;;5.80;99.90;;;;;;5014636;28;20014;-70
2023/01/27 08:40:42;;;;;;;15.65;9.95;;;5.90;99.90;;;;;;5014070;28;20057;-70
2023/01/27 08:43:08;;;;;;;14.73;9.68;;;5.90;99.90;;;;;;5011055;28;20042;-73
2023/01/27 08:45:34;;;;;;;14.05;9.55;;;5.90;99.90;;;;;;5005281;28;20418;-70
2023/01/27 08:48:01;;;;;;;18.63;10.07;;;5.90;99.90;;;;;;5003260;28;20026;-73
2023/01/27 08:50:29;;;;;;;15.90;10.38;;;5.90;99.90;;;;;;5009338;28;20062;-73
2023/01/27 08:52:57;;;;;;;17.27;9.60;;;6.00;99.90;;;;;;5003515;28;20040;-73
2023/01/27 08:55:28;;;;;;;14.32;9.75;;;5.90;99.90;;;;;;5004077;28;20037;-72
2023/01/27 08:57:54;;;;;;;15.98;9.77;;;5.90;99.90;;;;;;5005057;28;20026;-73
2023/01/27 09:00:19;;;;;;;13.75;8.48;;;6.00;99.90;;;;;;5002478;28;20022;-75
2023/01/27 09:02:46;;;;;;;13.75;9.45;;;6.00;99.90;;;;;;5004864;28;20113;-73
2023/01/27 09:05:11;;;;;;;14.60;9.65;;;6.00;99.90;;;;;;4997476;28;20033;-73
2023/01/27 09:07:37;;;;;;;14.35;9.13;;;6.10;99.90;;;;;;5008922;28;20433;-75
2023/01/27 09:10:04;;;;;;;11.98;8.63;;;6.10;99.90;;;;;;5013881;28;20034;-72
2023/01/27 09:12:29;;;;;;;13.02;8.52;;;6.20;99.90;;;;;;5013859;28;20030;-71
2023/01/27 09:14:57;;;;;;;13.05;8.25;;;6.30;99.90;;;;;;5000375;28;20033;-71
2023/01/27 09:17:23;;;;;;;16.17;9.60;;;6.20;99.90;;;;;;4997959;28;20091;-72
2023/01/27 09:19:49;;;;;;;13.15;9.00;;;6.20;99.90;;;;;;5012675;28;20029;-72
2023/01/27 09:22:15;;;;;;;13.65;8.77;;;6.20;99.90;;;;;;5012515;28;20037;-73
2023/01/27 09:24:41;;;;;;;11.55;8.30;;;6.30;99.90;;;;;;5007773;28;20081;-73
2023/01/27 09:27:07;;;;;;;11.63;8.18;;;6.30;99.90;;;;;;5002468;28;20033;-72
2023/01/27 09:29:32;;;;;;;12.95;9.23;;;6.20;99.90;;;;;;5003542;28;20065;-71
2023/01/27 09:31:58;;;;;;;10.50;7.53;;;6.30;99.90;;;;;;5002300;28;20026;-72
2023/01/27 09:34:24;;;;;;;15.85;8.27;;;6.30;99.90;;;;;;4999555;28;20395;-71
2023/01/27 09:36:54;;;;;;;10.93;7.85;;;6.30;99.90;;;;;;4991640;28;20538;-72
2023/01/27 09:39:21;;;;;;;9.00;7.40;;;6.30;99.90;;;;;;4991487;28;20382;-72
2023/01/27 09:42:03;;;;;;;11.13;8.38;;;6.10;99.90;;;;;;4992189;28;20495;-71
2023/01/27 09:44:59;;;;;;;8.90;6.82;;;6.20;99.90;;;;;;5005653;28;20639;-72
2023/01/27 09:47:52;;;;;;;8.35;6.80;;;6.20;99.90;;;;;;4991867;28;20045;-73
2023/01/27 09:50:39;;;;;;;10.20;7.18;;;6.10;99.90;;;;;;4990562;28;20082;-73
2023/01/27 09:53:19;;;;;;;8.98;7.18;;;6.20;99.90;;;;;;4994092;28;20039;-73
2023/01/27 09:56:03;;;;;;;10.57;7.35;;;6.30;99.90;;;;;;4998776;28;20022;-71
2023/01/27 09:59:10;;;;;;;10.45;7.65;;;6.30;99.90;;;;;;4998628;28;20482;-74
2023/01/27 10:02:08;;;;;;;10.45;7.40;;;6.40;99.90;;;;;;5030744;28;20108;-71
2023/01/27 10:05:14;;;;;;;10.35;7.68;;;6.30;99.90;;;;;;4983422;28;20038;-74
2023/01/27 10:08:04;;;;;;;10.07;7.38;;;6.20;99.90;;;;;;4998974;28;20121;-71
2023/01/27 10:10:40;;;;;;;12.10;7.30;;;6.30;99.90;;;;;;4993829;28;20105;-72
2023/01/27 10:13:09;;;;;;;10.40;7.30;;;6.40;99.90;;;;;;4996513;28;20022;-73
2023/01/27 10:15:39;;;;;;;13.55;7.63;;;6.40;99.90;;;;;;5013040;28;20033;-73
2023/01/27 10:18:25;;;;;;;13.18;7.78;;;6.30;99.90;;;;;;5005910;28;20029;-72
2023/01/27 10:21:02;;;;;;;8.35;6.57;;;6.40;99.90;;;;;;5008105;28;20128;-72
2023/01/27 10:23:45;;;;;;;10.75;6.72;;;6.50;99.90;;;;;;5001053;28;20030;-71
2023/01/27 10:26:39;;;;;;;8.18;6.40;;;6.40;99.90;;;;;;5012262;28;20034;-71
2023/01/27 10:29:10;;;;;;;10.27;6.85;;;6.50;99.90;;;;;;5005188;28;20384;-72
2023/01/27 10:31:48;;;;;;;8.70;6.50;;;6.50;99.90;;;;;;5007591;28;20026;-70
2023/01/27 10:34:27;;;;;;;8.63;7.30;;;6.50;99.90;;;;;;4998132;28;20044;-72
2023/01/27 10:37:07;;;;;;;8.30;6.32;;;6.50;99.90;;;;;;5008461;28;20026;-73
2023/01/27 10:39:58;;;;;;;10.15;6.15;;;6.50;99.90;;;;;;5009027;28;20145;-73
2023/01/27 10:42:37;;;;;;;8.85;6.88;;;6.50;99.90;;;;;;5008643;28;20029;-74
2023/01/27 10:45:15;;;;;;;9.57;7.32;;;6.50;99.90;;;;;;5012000;28;20038;-73
2023/01/27 10:48:18;;;;;;;9.30;7.00;;;6.50;99.90;;;;;;5009445;28;20025;-72
2023/01/27 10:50:55;;;;;;;9.52;7.00;;;6.50;99.90;;;;;;5011192;28;20041;-73
2023/01/27 10:53:31;;;;;;;11.75;6.90;;;6.60;99.90;;;;;;5005331;28;20575;-75
2023/01/27 10:56:03;;;;;;;10.88;6.70;;;6.70;99.90;;;;;;5011707;28;20321;-75
2023/01/27 10:58:41;;;;;;;9.45;6.72;;;6.60;99.90;;;;;;5004777;28;20083;-74
2023/01/27 11:01:10;;;;;;;8.55;5.90;;;6.60;99.90;;;;;;5002332;28;20030;-74
2023/01/27 11:03:53;;;;;;;8.32;6.80;;;6.50;99.90;;;;;;5008127;28;20458;-71
2023/01/27 11:06:23;;;;;;;8.35;6.20;;;6.50;99.90;;;;;;5007126;28;20037;-73
2023/01/27 11:08:52;;;;;;;9.25;6.25;;;6.60;99.90;;;;;;5012714;28;20026;-74
2023/01/27 11:14:17;;;;;;;9.70;6.30;;;6.60;99.90;;;;;;5002556;28;20092;-74
2023/01/27 11:16:49;;;;;;;7.22;5.82;;;6.60;99.90;;;;;;5010010;28;20185;-75
2023/01/27 11:19:24;;;;;;;;;;;6.60;99.90;;;;;;5007649;28;20026;-71
2023/01/27 11:21:52;;;;;;;6.65;5.55;;;6.60;99.90;;;;;;5010599;28;19988;-71
2023/01/27 11:24:50;;;;;;;7.65;6.10;;;6.80;99.90;;;;;;5002297;28;20034;-72
2023/01/27 11:27:26;;;;;;;10.77;6.55;;;6.80;99.90;;;;;;5007848;28;20053;-73
2023/01/27 11:29:58;;;;;;;9.63;6.45;;;6.80;99.90;;;;;;5000910;28;20034;-75
2023/01/27 11:32:53;;;;;;;7.25;6.00;;;6.80;99.90;;;;;;5012380;28;20033;-72
2023/01/27 11:35:20;;;;;;;6.55;5.53;;;6.70;99.90;;;;;;4985759;28;21502;-72
2023/01/27 11:37:49;;;;;;;7.13;5.72;;;6.70;99.90;;;;;;5006912;28;20026;-72
2023/01/27 11:40:20;;;;;;;6.90;6.20;;;6.80;99.90;;;;;;5011272;28;20076;-72
2023/01/27 11:42:46;;;;;;;6.55;5.82;;;6.80;99.90;;;;;;5011457;28;20026;-72
2023/01/27 11:45:18;;;;;;;6.60;5.47;;;6.70;99.90;;;;;;4994152;28;20030;-73
2023/01/27 11:47:48;;;;;;;7.78;5.53;;;6.90;99.90;;;;;;5008108;28;20512;-71
2023/01/27 11:50:23;;;;;;;6.93;5.82;;;6.90;99.90;;;;;;5011029;28;20038;-71
2023/01/27 11:53:04;;;;;;;6.45;5.57;;;6.90;99.90;;;;;;5005969;28;20076;-72
2023/01/27 11:55:37;;;;;;;9.63;6.15;;;6.80;99.90;;;;;;5009270;28;20033;-71
2023/01/27 11:58:26;;;;;;;7.00;5.57;;;6.80;99.90;;;;;;5008703;28;20390;-71
2023/01/27 12:00:57;;;;;;;7.88;5.60;;;6.80;99.90;;;;;;5009983;28;20064;-71
2023/01/27 12:03:29;;;;;;;7.57;5.97;;;6.80;99.90;;;;;;5011080;28;20482;-71
2023/01/27 12:05:58;;;;;;;7.32;5.53;;;6.80;99.90;;;;;;5006361;28;20034;-71
2023/01/27 12:08:38;;;;;;;9.65;5.57;;;6.80;99.90;;;;;;5010968;28;20034;-71
2023/01/27 12:11:28;;;;;;;9.30;5.93;;;6.80;99.90;;;;;;5011153;28;20036;-70
2023/01/27 12:14:00;;;;;;;7.22;5.80;;;6.80;99.90;;;;;;5010744;28;20028;-71
2023/01/27 12:16:49;;;;;;;9.10;5.78;;;6.80;99.90;;;;;;5009710;28;20018;-71
2023/01/27 12:19:39;;;;;;;7.30;5.40;;;6.90;99.90;;;;;;5010175;28;20026;-71
2023/01/27 12:22:15;;;;;;;8.27;6.25;;;6.80;99.90;;;;;;5011178;28;20018;-71
2023/01/27 12:24:48;;;;;;;19.30;6.55;;;6.90;99.90;;;;;;5010231;28;20068;-70
2023/01/27 12:27:26;;;;;;;9.57;5.78;;;7.00;99.90;;;;;;5003270;28;20103;-71
2023/01/27 12:30:00;;;;;;;8.65;6.53;;;7.10;99.90;;;;;;5002388;28;20048;-71
2023/01/27 12:32:46;;;;;;;12.38;6.40;;;7.20;99.90;;;;;;5006125;28;20125;-71
2023/01/27 12:35:31;;;;;;;9.68;5.53;;;7.10;99.90;;;;;;5005785;28;20045;-71
2023/01/27 12:38:06;;;;;;;9.98;7.15;;;7.20;99.90;;;;;;5006053;28;20041;-71
2023/01/27 12:40:33;;;;;;;9.98;6.97;;;7.10;99.90;;;;;;5008351;28;20030;-72
2023/01/27 12:43:04;;;;;;;9.90;7.43;;;7.10;99.90;;;;;;5009323;28;20046;-71
2023/01/27 12:45:37;;;;;;;9.33;6.90;;;7.00;99.90;;;;;;5009218;28;20030;-71
2023/01/27 12:48:08;;;;;;;8.52;6.65;;;7.10;99.90;;;;;;5009866;28;20268;-72
2023/01/27 12:50:36;;;;;;;8.10;6.07;;;7.10;99.90;;;;;;5010322;28;20049;-71
2023/01/27 12:53:23;;;;;;;8.25;6.25;;;7.00;99.90;;;;;;5008045;28;20057;-71
2023/01/27 12:56:10;;;;;;;19.13;6.80;;;7.00;99.90;;;;;;5008386;28;20040;-72
2023/01/27 12:58:54;;;;;;;11.05;6.90;;;7.00;99.90;;;;;;5008525;28;20033;-71
2023/01/27 13:01:30;;;;;;;14.23;6.93;;;6.90;99.90;;;;;;5009678;28;20033;-71
2023/01/27 13:03:59;;;;;;;10.77;6.97;;;6.90;99.90;;;;;;5008134;28;20132;-71
2023/01/27 13:06:40;;;;;;;9.77;7.40;;;7.00;99.90;;;;;;5009256;28;20026;-71
2023/01/27 13:09:29;;;;;;;14.32;6.75;;;7.10;99.90;;;;;;5002637;28;20022;-70
2023/01/27 13:11:59;;;;;;;9.25;6.25;;;7.10;99.90;;;;;;4999351;28;20038;-71
2023/01/27 13:14:29;;;;;;;7.78;6.28;;;7.10;99.90;;;;;;4994452;28;20025;-72
2023/01/27 13:16:59;;;;;;;9.88;6.50;;;7.10;99.90;;;;;;5008097;28;20105;-71
2023/01/27 13:19:43;;;;;;;9.38;6.90;;;7.00;99.90;;;;;;5006445;28;20032;-71
2023/01/27 13:22:17;;;;;;;8.55;6.53;;;7.00;99.90;;;;;;5009317;28;20030;-71
2023/01/27 13:24:48;;;;;;;8.23;6.28;;;7.10;99.90;;;;;;5007046;28;20029;-71
2023/01/27 13:27:17;;;;;;;9.52;6.85;;;7.10;99.90;;;;;;5008735;28;20112;-71
2023/01/27 13:30:02;;;;;;;9.68;6.63;;;7.10;99.90;;;;;;5008330;28;20057;-71
2023/01/27 13:32:32;;;;;;;7.20;6.00;;;7.10;99.90;;;;;;5009422;28;20032;-71
2023/01/27 13:35:32;;;;;;;8.93;6.07;;;7.10;99.90;;;;;;5007031;28;20438;-71
2023/01/27 13:38:19;;;;;;;8.75;6.50;;;7.10;99.90;;;;;;5003119;28;20042;-73